createdAt,value
2017-12-23T00:00:01.843Z,1023
2017-12-23T00:00:50.971Z,1023.06
2017-12-23T00:01:40.253Z,1023.04
2017-12-23T00:02:31.030Z,1023.02
2017-12-23T00:03:21.830Z,1023.1
2017-12-23T00:04:10.461Z,1023.12
2017-12-23T00:05:00.182Z,1023.11
2017-12-23T00:05:48.780Z,1023.11
2017-12-23T00:06:40.570Z,1023.06
2017-12-23T00:10:34.531Z,1023.12
2017-12-23T00:11:23.352Z,1023.11
2017-12-23T00:12:13.525Z,1023.13
2017-12-23T00:13:02.488Z,1023.16
2017-12-23T00:13:51.981Z,1023.12
2017-12-23T00:14:41.173Z,1023.12
2017-12-23T00:15:29.558Z,1023.07
2017-12-23T00:16:18.632Z,1023.12
2017-12-23T00:17:09.710Z,1023.1
2017-12-23T00:17:58.038Z,1023.12
2017-12-23T00:18:47.116Z,1023.14
2017-12-23T00:19:36.423Z,1023.11
2017-12-23T00:20:27.555Z,1023.08
2017-12-23T00:21:16.222Z,1023.13
2017-12-23T00:22:05.430Z,1023.14
2017-12-23T00:22:54.039Z,1023.09
2017-12-23T00:23:42.995Z,1023.08
2017-12-23T00:24:31.686Z,1023.09
2017-12-23T00:25:20.171Z,1023.03
2017-12-23T00:26:08.843Z,1023.03
2017-12-23T00:26:58.233Z,1023.04
2017-12-23T00:27:46.510Z,1023.09
2017-12-23T00:28:35.174Z,1023.07
2017-12-23T00:29:23.924Z,1023.1
2017-12-23T00:30:12.705Z,1023.09
2017-12-23T00:31:01.272Z,1023.11
2017-12-23T00:31:50.034Z,1023.1
2017-12-23T00:32:38.676Z,1023.11
2017-12-23T00:33:27.890Z,1023.13
2017-12-23T00:36:00.366Z,1023.17
2017-12-23T00:36:50.044Z,1023.13
2017-12-23T00:37:39.591Z,1023.13
2017-12-23T00:38:29.115Z,1023.17
2017-12-23T00:39:18.309Z,1023.12
2017-12-23T00:40:06.492Z,1023.17
2017-12-23T00:40:55.722Z,1023.14
2017-12-23T00:41:44.519Z,1023.15
2017-12-23T00:42:33.970Z,1023.12
2017-12-23T00:43:22.451Z,1023.11
2017-12-23T00:44:11.778Z,1023.11
2017-12-23T00:45:00.254Z,1023.1
2017-12-23T00:45:49.142Z,1023.07
2017-12-23T00:46:38.798Z,1023.08
2017-12-23T00:47:29.899Z,1023.08
2017-12-23T00:48:18.808Z,1023.08
2017-12-23T00:49:07.396Z,1023.06
2017-12-23T00:49:57.138Z,1023.06
2017-12-23T00:50:46.358Z,1023.07
2017-12-23T00:51:35.440Z,1023.04
2017-12-23T00:52:24.235Z,1023.11
2017-12-23T00:53:12.622Z,1023.1
2017-12-23T00:54:01.442Z,1023.06
2017-12-23T00:54:50.312Z,1023.07
2017-12-23T00:55:39.325Z,1023.07
2017-12-23T00:56:27.579Z,1023.01
2017-12-23T00:57:16.783Z,1023.07
2017-12-23T00:58:05.388Z,1023.11
2017-12-23T00:58:54.141Z,1023.05
2017-12-23T00:59:42.903Z,1023.04
2017-12-23T01:00:31.258Z,1023.03
2017-12-23T01:01:20.104Z,1023.07
2017-12-23T01:02:08.165Z,1023.05
2017-12-23T01:02:57.090Z,1023.08
2017-12-23T01:03:48.463Z,1023.05
2017-12-23T01:04:37.387Z,1023.06
2017-12-23T01:05:26.429Z,1023.01
2017-12-23T01:06:15.360Z,1023.01
2017-12-23T01:07:03.840Z,1023.02
2017-12-23T01:07:53.231Z,1022.97
2017-12-23T01:08:41.941Z,1022.98
2017-12-23T01:09:27.991Z,1022.98
2017-12-23T01:10:08.538Z,1022.99
2017-12-23T01:10:49.092Z,1022.95
2017-12-23T01:11:29.699Z,1022.96
2017-12-23T01:12:10.249Z,1022.98
2017-12-23T01:12:50.770Z,1022.95
2017-12-23T01:13:31.388Z,1022.94
2017-12-23T01:14:11.850Z,1022.97
2017-12-23T01:14:52.436Z,1022.98
2017-12-23T01:15:33.781Z,1022.95
2017-12-23T01:16:14.312Z,1023
2017-12-23T01:16:54.834Z,1023
2017-12-23T01:17:35.386Z,1022.98
2017-12-23T01:18:15.924Z,1022.92
2017-12-23T01:18:56.486Z,1022.96
2017-12-23T01:19:37.010Z,1022.95
2017-12-23T01:20:17.517Z,1023.01
2017-12-23T01:20:58.126Z,1022.97
2017-12-23T01:21:38.609Z,1022.94
2017-12-23T01:22:19.235Z,1022.95
2017-12-23T01:22:59.748Z,1023
2017-12-23T01:23:40.386Z,1022.96
2017-12-23T01:24:20.899Z,1022.95
2017-12-23T01:25:01.460Z,1023.01
2017-12-23T01:25:42.296Z,1022.98
2017-12-23T01:26:22.789Z,1022.97
2017-12-23T01:27:03.386Z,1022.93
2017-12-23T01:27:43.985Z,1022.94
2017-12-23T01:28:24.460Z,1022.89
2017-12-23T01:29:05.055Z,1022.89
2017-12-23T01:29:45.612Z,1022.93
2017-12-23T01:30:26.155Z,1022.88
2017-12-23T01:31:06.830Z,1022.88
2017-12-23T01:31:47.343Z,1022.86
2017-12-23T01:32:27.917Z,1022.83
2017-12-23T01:33:08.479Z,1022.85
2017-12-23T01:33:49.046Z,1022.84
2017-12-23T01:34:29.643Z,1022.85
2017-12-23T01:35:10.167Z,1022.87
2017-12-23T01:35:50.696Z,1022.84
2017-12-23T01:36:31.225Z,1022.88
2017-12-23T01:37:11.803Z,1022.81
2017-12-23T01:37:52.330Z,1022.85
2017-12-23T01:38:32.903Z,1022.82
2017-12-23T01:39:13.460Z,1022.81
2017-12-23T01:39:54.061Z,1022.81
2017-12-23T01:40:34.571Z,1022.79
2017-12-23T01:41:15.155Z,1022.81
2017-12-23T01:41:55.738Z,1022.77
2017-12-23T01:42:36.269Z,1022.75
2017-12-23T01:43:16.809Z,1022.77
2017-12-23T01:43:57.325Z,1022.79
2017-12-23T01:44:37.919Z,1022.74
2017-12-23T01:45:18.485Z,1022.68
2017-12-23T01:45:59.030Z,1022.72
2017-12-23T01:46:39.606Z,1022.71
2017-12-23T01:47:20.132Z,1022.7
2017-12-23T01:48:00.721Z,1022.68
2017-12-23T01:48:41.208Z,1022.68
2017-12-23T01:49:21.781Z,1022.66
2017-12-23T01:50:02.416Z,1022.71
2017-12-23T01:50:42.986Z,1022.69
2017-12-23T01:51:23.534Z,1022.67
2017-12-23T01:52:04.114Z,1022.69
2017-12-23T01:52:44.861Z,1022.67
2017-12-23T01:53:25.392Z,1022.7
2017-12-23T01:54:05.974Z,1022.68
2017-12-23T01:54:46.526Z,1022.69
2017-12-23T01:55:27.151Z,1022.63
2017-12-23T01:56:07.745Z,1022.66
2017-12-23T01:56:48.237Z,1022.64
2017-12-23T01:57:28.800Z,1022.65
2017-12-23T01:58:09.350Z,1022.68
2017-12-23T01:58:49.947Z,1022.65
2017-12-23T01:59:30.548Z,1022.65
2017-12-23T02:00:11.073Z,1022.66
2017-12-23T02:00:51.643Z,1022.66
2017-12-23T02:01:32.198Z,1022.74
2017-12-23T02:02:12.760Z,1022.7
2017-12-23T02:02:53.286Z,1022.7
2017-12-23T02:03:33.820Z,1022.71
2017-12-23T02:04:14.480Z,1022.72
2017-12-23T02:04:55.188Z,1022.7
2017-12-23T02:05:35.757Z,1022.67
2017-12-23T02:06:16.380Z,1022.7
2017-12-23T02:06:56.918Z,1022.76
2017-12-23T02:07:37.390Z,1022.73
2017-12-23T02:08:17.951Z,1022.73
2017-12-23T02:08:58.515Z,1022.73
2017-12-23T02:09:39.110Z,1022.72
2017-12-23T02:10:19.586Z,1022.75
2017-12-23T02:11:00.135Z,1022.76
2017-12-23T02:11:40.873Z,1022.71
2017-12-23T02:12:21.357Z,1022.74
2017-12-23T02:13:02.002Z,1022.76
2017-12-23T02:13:42.532Z,1022.7
2017-12-23T02:14:23.113Z,1022.75
2017-12-23T02:15:03.622Z,1022.77
2017-12-23T02:15:44.177Z,1022.79
2017-12-23T02:16:24.740Z,1022.79
2017-12-23T02:17:05.336Z,1022.75
2017-12-23T02:17:46.046Z,1022.76
2017-12-23T02:18:26.618Z,1022.79
2017-12-23T02:19:07.103Z,1022.79
2017-12-23T02:19:47.601Z,1022.81
2017-12-23T02:20:28.226Z,1022.75
2017-12-23T02:21:08.694Z,1022.72
2017-12-23T02:21:49.278Z,1022.74
2017-12-23T02:22:29.755Z,1022.73
2017-12-23T02:23:10.391Z,1022.72
2017-12-23T02:23:50.884Z,1022.72
2017-12-23T02:24:31.501Z,1022.72
2017-12-23T02:25:12.058Z,1022.75
2017-12-23T02:25:52.619Z,1022.73
2017-12-23T02:26:34.053Z,1022.73
2017-12-23T02:27:14.577Z,1022.73
2017-12-23T02:27:55.129Z,1022.65
2017-12-23T02:28:35.681Z,1022.76
2017-12-23T02:29:16.328Z,1022.68
2017-12-23T02:29:56.917Z,1022.71
2017-12-23T02:30:37.459Z,1022.68
2017-12-23T02:31:18.013Z,1022.71
2017-12-23T02:31:58.553Z,1022.71
2017-12-23T02:32:39.106Z,1022.66
2017-12-23T02:33:19.639Z,1022.7
2017-12-23T02:34:00.223Z,1022.69
2017-12-23T02:34:40.710Z,1022.64
2017-12-23T02:35:21.310Z,1022.67
2017-12-23T02:36:01.909Z,1022.65
2017-12-23T02:36:42.427Z,1022.67
2017-12-23T02:37:23.001Z,1022.68
2017-12-23T02:38:03.518Z,1022.75
2017-12-23T02:38:44.101Z,1022.72
2017-12-23T02:39:24.604Z,1022.72
2017-12-23T02:40:05.132Z,1022.64
2017-12-23T02:40:45.650Z,1022.69
2017-12-23T02:41:26.206Z,1022.67
2017-12-23T02:42:06.810Z,1022.63
2017-12-23T02:42:47.379Z,1022.63
2017-12-23T02:43:27.898Z,1022.64
2017-12-23T02:44:08.423Z,1022.58
2017-12-23T02:44:48.943Z,1022.68
2017-12-23T02:45:29.545Z,1022.58
2017-12-23T02:46:10.045Z,1022.61
2017-12-23T02:46:50.546Z,1022.55
2017-12-23T02:47:31.116Z,1022.55
2017-12-23T02:48:11.609Z,1022.53
2017-12-23T02:48:52.172Z,1022.49
2017-12-23T02:49:32.858Z,1022.52
2017-12-23T02:50:13.547Z,1022.53
2017-12-23T02:50:54.076Z,1022.53
2017-12-23T02:51:34.720Z,1022.51
2017-12-23T02:52:15.182Z,1022.51
2017-12-23T02:52:55.705Z,1022.54
2017-12-23T02:53:36.280Z,1022.47
2017-12-23T02:54:17.712Z,1022.46
2017-12-23T02:54:57.521Z,1022.43
2017-12-23T02:55:38.085Z,1022.45
2017-12-23T02:56:18.787Z,1022.4
2017-12-23T02:56:59.763Z,1022.45
2017-12-23T02:57:40.353Z,1022.47
2017-12-23T02:58:20.850Z,1022.48
2017-12-23T02:59:01.409Z,1022.48
2017-12-23T02:59:41.987Z,1022.42
2017-12-23T03:00:22.585Z,1022.46
2017-12-23T03:01:03.206Z,1022.46
2017-12-23T03:01:44.215Z,1022.41
2017-12-23T03:02:24.265Z,1022.42
2017-12-23T03:03:04.830Z,1022.43
2017-12-23T03:03:45.331Z,1022.39
2017-12-23T03:04:26.058Z,1022.44
2017-12-23T03:05:06.506Z,1022.41
2017-12-23T03:05:47.011Z,1022.42
2017-12-23T03:06:27.554Z,1022.42
2017-12-23T03:07:08.141Z,1022.43
2017-12-23T03:07:48.711Z,1022.4
2017-12-23T03:08:29.231Z,1022.41
2017-12-23T03:09:09.754Z,1022.46
2017-12-23T03:09:50.348Z,1022.44
2017-12-23T03:10:30.866Z,1022.43
2017-12-23T03:11:11.402Z,1022.43
2017-12-23T03:11:51.936Z,1022.4
2017-12-23T03:12:32.414Z,1022.43
2017-12-23T03:13:13.050Z,1022.43
2017-12-23T03:13:53.800Z,1022.42
2017-12-23T03:14:34.327Z,1022.45
2017-12-23T03:15:14.876Z,1022.45
2017-12-23T03:15:55.382Z,1022.47
2017-12-23T03:16:35.913Z,1022.44
2017-12-23T03:17:16.492Z,1022.43
2017-12-23T03:17:57.018Z,1022.43
2017-12-23T03:18:37.582Z,1022.51
2017-12-23T03:19:18.215Z,1022.45
2017-12-23T03:19:58.709Z,1022.5
2017-12-23T03:20:39.299Z,1022.45
2017-12-23T03:21:19.899Z,1022.47
2017-12-23T03:22:00.395Z,1022.46
2017-12-23T03:22:40.983Z,1022.46
2017-12-23T03:23:21.506Z,1022.45
2017-12-23T03:24:02.066Z,1022.41
2017-12-23T03:24:42.647Z,1022.43
2017-12-23T03:25:23.252Z,1022.42
2017-12-23T03:26:03.729Z,1022.42
2017-12-23T03:26:44.377Z,1022.42
2017-12-23T03:27:24.932Z,1022.42
2017-12-23T03:28:05.490Z,1022.38
2017-12-23T03:28:46.028Z,1022.4
2017-12-23T03:29:26.567Z,1022.35
2017-12-23T03:30:07.117Z,1022.41
2017-12-23T03:30:47.660Z,1022.45
2017-12-23T03:31:28.222Z,1022.38
2017-12-23T03:32:08.738Z,1022.42
2017-12-23T03:32:49.442Z,1022.42
2017-12-23T03:33:29.985Z,1022.4
2017-12-23T03:34:10.468Z,1022.45
2017-12-23T03:34:50.968Z,1022.41
2017-12-23T03:35:31.552Z,1022.42
2017-12-23T03:36:12.084Z,1022.41
2017-12-23T03:36:52.589Z,1022.42
2017-12-23T03:37:33.107Z,1022.39
2017-12-23T03:38:13.666Z,1022.46
2017-12-23T03:38:54.292Z,1022.4
2017-12-23T03:39:34.967Z,1022.47
2017-12-23T03:40:15.514Z,1022.45
2017-12-23T03:40:56.030Z,1022.45
2017-12-23T03:41:36.607Z,1022.46
2017-12-23T03:42:17.134Z,1022.46
2017-12-23T03:42:58.306Z,1022.44
2017-12-23T03:43:38.932Z,1022.46
2017-12-23T03:44:19.737Z,1022.44
2017-12-23T03:45:00.522Z,1022.47
2017-12-23T03:45:42.900Z,1022.47
2017-12-23T03:46:23.695Z,1022.45
2017-12-23T03:47:04.402Z,1022.44
2017-12-23T03:47:44.986Z,1022.4
2017-12-23T03:48:25.501Z,1022.39
2017-12-23T03:49:06.094Z,1022.34
2017-12-23T03:49:46.639Z,1022.47
2017-12-23T03:50:27.189Z,1022.45
2017-12-23T03:51:07.763Z,1022.45
2017-12-23T03:51:48.249Z,1022.49
2017-12-23T03:52:28.774Z,1022.44
2017-12-23T03:53:09.412Z,1022.45
2017-12-23T03:53:49.964Z,1022.46
2017-12-23T03:54:30.643Z,1022.43
2017-12-23T03:55:11.257Z,1022.44
2017-12-23T03:55:51.835Z,1022.45
2017-12-23T03:56:32.344Z,1022.47
2017-12-23T03:57:12.876Z,1022.4
2017-12-23T03:57:53.424Z,1022.44
2017-12-23T03:58:33.927Z,1022.42
2017-12-23T03:59:14.522Z,1022.47
2017-12-23T03:59:55.030Z,1022.45
2017-12-23T04:00:35.810Z,1022.4
2017-12-23T04:01:16.296Z,1022.45
2017-12-23T04:01:56.854Z,1022.46
2017-12-23T04:02:37.510Z,1022.5
2017-12-23T04:03:18.025Z,1022.49
2017-12-23T04:03:58.582Z,1022.43
2017-12-23T04:04:39.109Z,1022.45
2017-12-23T04:05:20.226Z,1022.48
2017-12-23T04:06:00.180Z,1022.5
2017-12-23T04:06:40.737Z,1022.49
2017-12-23T04:07:21.355Z,1022.49
2017-12-23T04:08:01.855Z,1022.52
2017-12-23T04:08:42.425Z,1022.52
2017-12-23T04:09:22.943Z,1022.57
2017-12-23T04:10:03.557Z,1022.49
2017-12-23T04:10:44.068Z,1022.55
2017-12-23T04:11:24.587Z,1022.53
2017-12-23T04:12:05.178Z,1022.5
2017-12-23T04:12:46.071Z,1022.56
2017-12-23T04:13:26.585Z,1022.52
2017-12-23T04:14:07.115Z,1022.49
2017-12-23T04:14:47.756Z,1022.49
2017-12-23T04:15:28.331Z,1022.5
2017-12-23T04:16:08.912Z,1022.45
2017-12-23T04:16:49.356Z,1022.48
2017-12-23T04:17:29.876Z,1022.44
2017-12-23T04:18:10.402Z,1022.45
2017-12-23T04:18:50.912Z,1022.42
2017-12-23T04:19:31.421Z,1022.48
2017-12-23T04:20:12.068Z,1022.4
2017-12-23T04:20:52.529Z,1022.38
2017-12-23T04:21:33.058Z,1022.4
2017-12-23T04:22:14.049Z,1022.4
2017-12-23T04:22:54.768Z,1022.34
2017-12-23T04:23:35.376Z,1022.36
2017-12-23T04:24:15.912Z,1022.37
2017-12-23T04:24:56.392Z,1022.37
2017-12-23T04:25:36.956Z,1022.33
2017-12-23T04:26:17.553Z,1022.27
2017-12-23T04:26:58.029Z,1022.33
2017-12-23T04:27:38.592Z,1022.32
2017-12-23T04:28:19.154Z,1022.32
2017-12-23T04:28:59.679Z,1022.31
2017-12-23T04:29:40.288Z,1022.29
2017-12-23T04:30:20.747Z,1022.32
2017-12-23T04:31:01.258Z,1022.3
2017-12-23T04:31:42.022Z,1022.28
2017-12-23T04:32:22.916Z,1022.29
2017-12-23T04:33:03.447Z,1022.35
2017-12-23T04:33:43.999Z,1022.29
2017-12-23T04:34:24.564Z,1022.32
2017-12-23T04:35:05.046Z,1022.31
2017-12-23T04:35:45.576Z,1022.28
2017-12-23T04:36:26.172Z,1022.29
2017-12-23T04:37:06.715Z,1022.27
2017-12-23T04:37:47.300Z,1022.3
2017-12-23T04:38:27.838Z,1022.28
2017-12-23T04:39:08.507Z,1022.21
2017-12-23T04:39:49.043Z,1022.26
2017-12-23T04:40:29.592Z,1022.26
2017-12-23T04:41:10.173Z,1022.26
2017-12-23T04:41:50.746Z,1022.26
2017-12-23T04:42:31.321Z,1022.27
2017-12-23T04:43:11.900Z,1022.3
2017-12-23T04:43:52.472Z,1022.23
2017-12-23T04:44:32.993Z,1022.27
2017-12-23T04:45:13.528Z,1022.26
2017-12-23T04:45:54.054Z,1022.25
2017-12-23T04:46:34.578Z,1022.26
2017-12-23T04:47:15.115Z,1022.26
2017-12-23T04:47:55.656Z,1022.31
2017-12-23T04:48:36.196Z,1022.31
2017-12-23T04:49:16.752Z,1022.32
2017-12-23T04:49:57.242Z,1022.3
2017-12-23T04:50:38.112Z,1022.31
2017-12-23T04:51:18.617Z,1022.3
2017-12-23T04:51:59.304Z,1022.29
2017-12-23T04:52:39.873Z,1022.26
2017-12-23T04:53:21.228Z,1022.32
2017-12-23T04:54:01.149Z,1022.32
2017-12-23T04:54:41.696Z,1022.34
2017-12-23T04:55:22.270Z,1022.34
2017-12-23T04:56:03.122Z,1022.25
2017-12-23T04:56:43.638Z,1022.3
2017-12-23T04:57:24.158Z,1022.31
2017-12-23T04:58:04.705Z,1022.28
2017-12-23T04:58:45.225Z,1022.28
2017-12-23T04:59:25.746Z,1022.24
2017-12-23T05:00:06.303Z,1022.24
2017-12-23T05:00:46.908Z,1022.29
2017-12-23T05:01:27.406Z,1022.25
2017-12-23T05:02:08.028Z,1022.26
2017-12-23T05:02:48.559Z,1022.28
2017-12-23T05:03:29.293Z,1022.22
2017-12-23T05:04:09.758Z,1022.2
2017-12-23T05:04:50.359Z,1022.25
2017-12-23T05:05:30.912Z,1022.21
2017-12-23T05:06:12.229Z,1022.24
2017-12-23T05:06:51.920Z,1022.16
2017-12-23T05:07:32.472Z,1022.18
2017-12-23T05:08:13.038Z,1022.22
2017-12-23T05:08:53.777Z,1022.18
2017-12-23T05:09:34.256Z,1022.21
2017-12-23T05:10:14.790Z,1022.16
2017-12-23T05:10:55.344Z,1022.19
2017-12-23T05:11:35.886Z,1022.19
2017-12-23T05:12:16.473Z,1022.23
2017-12-23T05:12:56.968Z,1022.25
2017-12-23T05:13:37.576Z,1022.31
2017-12-23T05:14:18.120Z,1022.23
2017-12-23T05:14:58.682Z,1022.29
2017-12-23T05:15:39.399Z,1022.28
2017-12-23T05:16:19.929Z,1022.28
2017-12-23T05:17:00.475Z,1022.32
2017-12-23T05:17:40.999Z,1022.3
2017-12-23T05:18:21.542Z,1022.32
2017-12-23T05:19:02.184Z,1022.34
2017-12-23T05:19:42.600Z,1022.34
2017-12-23T05:20:23.069Z,1022.33
2017-12-23T05:21:03.714Z,1022.41
2017-12-23T05:21:44.247Z,1022.4
2017-12-23T05:22:24.795Z,1022.43
2017-12-23T05:23:05.357Z,1022.44
2017-12-23T05:23:45.899Z,1022.44
2017-12-23T05:24:26.489Z,1022.43
2017-12-23T05:25:07.024Z,1022.44
2017-12-23T05:25:47.569Z,1022.51
2017-12-23T05:26:28.158Z,1022.51
2017-12-23T05:27:08.732Z,1022.5
2017-12-23T05:27:49.279Z,1022.51
2017-12-23T05:28:29.869Z,1022.48
2017-12-23T05:29:10.397Z,1022.44
2017-12-23T05:29:50.941Z,1022.48
2017-12-23T05:30:31.537Z,1022.5
2017-12-23T05:31:12.081Z,1022.5
2017-12-23T05:31:52.643Z,1022.48
2017-12-23T05:32:33.225Z,1022.5
2017-12-23T05:33:13.822Z,1022.45
2017-12-23T05:33:54.444Z,1022.44
2017-12-23T05:34:35.120Z,1022.43
2017-12-23T05:35:15.744Z,1022.46
2017-12-23T05:35:56.344Z,1022.42
2017-12-23T05:36:36.943Z,1022.45
2017-12-23T05:37:17.424Z,1022.47
2017-12-23T05:37:57.974Z,1022.45
2017-12-23T05:38:38.553Z,1022.45
2017-12-23T05:39:19.011Z,1022.4
2017-12-23T05:39:59.540Z,1022.46
2017-12-23T05:40:41.021Z,1022.49
2017-12-23T05:41:21.654Z,1022.43
2017-12-23T05:42:02.125Z,1022.44
2017-12-23T05:42:42.694Z,1022.43
2017-12-23T05:43:23.378Z,1022.42
2017-12-23T05:44:03.938Z,1022.43
2017-12-23T05:44:44.464Z,1022.44
2017-12-23T05:45:25.026Z,1022.42
2017-12-23T05:46:05.698Z,1022.39
2017-12-23T05:46:46.153Z,1022.42
2017-12-23T05:47:26.704Z,1022.43
2017-12-23T05:48:07.274Z,1022.42
2017-12-23T05:48:47.816Z,1022.41
2017-12-23T05:49:28.584Z,1022.4
2017-12-23T05:50:08.943Z,1022.43
2017-12-23T05:50:50.237Z,1022.39
2017-12-23T05:51:30.831Z,1022.45
2017-12-23T05:52:11.376Z,1022.46
2017-12-23T05:52:52.783Z,1022.43
2017-12-23T05:53:33.415Z,1022.42
2017-12-23T05:54:13.926Z,1022.47
2017-12-23T05:54:54.462Z,1022.47
2017-12-23T05:55:34.984Z,1022.47
2017-12-23T05:56:15.680Z,1022.51
2017-12-23T05:56:56.273Z,1022.5
2017-12-23T05:57:36.793Z,1022.52
2017-12-23T05:58:17.284Z,1022.53
2017-12-23T05:58:57.866Z,1022.53
2017-12-23T05:59:38.428Z,1022.5
2017-12-23T06:00:18.924Z,1022.52
2017-12-23T06:00:59.419Z,1022.51
2017-12-23T06:01:40.044Z,1022.44
2017-12-23T06:02:20.568Z,1022.52
2017-12-23T06:03:01.173Z,1022.52
2017-12-23T06:03:41.705Z,1022.52
2017-12-23T06:04:22.243Z,1022.5
2017-12-23T06:05:02.825Z,1022.46
2017-12-23T06:05:43.367Z,1022.46
2017-12-23T06:06:23.928Z,1022.45
2017-12-23T06:07:04.408Z,1022.4
2017-12-23T06:07:44.934Z,1022.4
2017-12-23T06:08:25.615Z,1022.38
2017-12-23T06:09:06.194Z,1022.37
2017-12-23T06:09:46.749Z,1022.39
2017-12-23T06:10:27.294Z,1022.35
2017-12-23T06:11:07.793Z,1022.28
2017-12-23T06:11:48.371Z,1022.32
2017-12-23T06:12:28.932Z,1022.36
2017-12-23T06:13:09.476Z,1022.26
2017-12-23T06:13:50.053Z,1022.34
2017-12-23T06:14:30.586Z,1022.29
2017-12-23T06:15:11.125Z,1022.26
2017-12-23T06:15:51.805Z,1022.28
2017-12-23T06:16:32.341Z,1022.27
2017-12-23T06:17:12.802Z,1022.22
2017-12-23T06:17:53.357Z,1022.22
2017-12-23T06:18:33.879Z,1022.22
2017-12-23T06:19:14.530Z,1022.21
2017-12-23T06:19:55.208Z,1022.22
2017-12-23T06:20:35.733Z,1022.18
2017-12-23T06:21:16.237Z,1022.21
2017-12-23T06:21:56.936Z,1022.19
2017-12-23T06:22:37.460Z,1022.15
2017-12-23T06:23:18.015Z,1022.17
2017-12-23T06:23:58.500Z,1022.15
2017-12-23T06:24:39.059Z,1022.14
2017-12-23T06:25:19.609Z,1022.16
2017-12-23T06:26:00.249Z,1022.16
2017-12-23T06:26:40.741Z,1022.13
2017-12-23T06:27:21.322Z,1022.13
2017-12-23T06:28:01.810Z,1022.08
2017-12-23T06:28:42.370Z,1022.1
2017-12-23T06:29:23.003Z,1022.05
2017-12-23T06:30:03.641Z,1022.05
2017-12-23T06:30:44.166Z,1022.03
2017-12-23T06:31:24.858Z,1022.01
2017-12-23T06:32:05.308Z,1022.04
2017-12-23T06:32:45.864Z,1022.04
2017-12-23T06:33:26.366Z,1022.04
2017-12-23T06:34:06.867Z,1022.01
2017-12-23T06:34:47.419Z,1022.05
2017-12-23T06:35:27.921Z,1022.01
2017-12-23T06:36:08.545Z,1022.01
2017-12-23T06:36:49.048Z,1021.98
2017-12-23T06:37:29.612Z,1021.98
2017-12-23T06:38:10.311Z,1021.97
2017-12-23T06:38:50.844Z,1021.92
2017-12-23T06:39:31.431Z,1021.91
2017-12-23T06:40:12.153Z,1021.93
2017-12-23T06:40:52.697Z,1021.92
2017-12-23T06:41:33.294Z,1021.88
2017-12-23T06:42:13.866Z,1021.86
2017-12-23T06:42:54.423Z,1021.81
2017-12-23T06:43:35.006Z,1021.86
2017-12-23T06:44:16.250Z,1021.82
2017-12-23T06:44:56.220Z,1021.78
2017-12-23T06:45:36.765Z,1021.78
2017-12-23T06:46:17.401Z,1021.72
2017-12-23T06:46:57.999Z,1021.76
2017-12-23T06:47:38.598Z,1021.76
2017-12-23T06:48:19.142Z,1021.72
2017-12-23T06:48:59.706Z,1021.75
2017-12-23T06:49:40.370Z,1021.74
2017-12-23T06:50:20.934Z,1021.71
2017-12-23T06:51:01.465Z,1021.67
2017-12-23T06:51:41.955Z,1021.7
2017-12-23T06:52:22.542Z,1021.75
2017-12-23T06:53:03.384Z,1021.73
2017-12-23T06:53:43.706Z,1021.74
2017-12-23T06:54:24.275Z,1021.75
2017-12-23T06:55:04.864Z,1021.73
2017-12-23T06:55:45.480Z,1021.74
2017-12-23T06:56:26.151Z,1021.75
2017-12-23T06:57:06.678Z,1021.74
2017-12-23T06:57:47.082Z,1021.75
2017-12-23T06:58:27.643Z,1021.75
2017-12-23T06:59:08.189Z,1021.78
2017-12-23T06:59:48.845Z,1021.75
2017-12-23T07:00:29.352Z,1021.76
2017-12-23T07:01:09.914Z,1021.72
2017-12-23T07:01:50.419Z,1021.73
2017-12-23T07:02:30.941Z,1021.81
2017-12-23T07:03:11.499Z,1021.75
2017-12-23T07:03:52.036Z,1021.71
2017-12-23T07:04:32.596Z,1021.77
2017-12-23T07:05:13.202Z,1021.79
2017-12-23T07:05:53.669Z,1021.78
2017-12-23T07:06:34.262Z,1021.78
2017-12-23T07:07:14.811Z,1021.78
2017-12-23T07:07:56.068Z,1021.74
2017-12-23T07:08:36.522Z,1021.79
2017-12-23T07:09:17.223Z,1021.8
2017-12-23T07:09:57.729Z,1021.77
2017-12-23T07:10:38.372Z,1021.77
2017-12-23T07:11:18.942Z,1021.76
2017-12-23T07:11:59.445Z,1021.71
2017-12-23T07:12:40.014Z,1021.69
2017-12-23T07:13:20.588Z,1021.7
2017-12-23T07:14:01.074Z,1021.75
2017-12-23T07:14:44.140Z,1021.75
2017-12-23T07:15:24.690Z,1021.78
2017-12-23T07:16:05.246Z,1021.8
2017-12-23T07:16:45.758Z,1021.74
2017-12-23T07:17:26.315Z,1021.73
2017-12-23T07:18:07.119Z,1021.71
2017-12-23T07:18:47.620Z,1021.72
2017-12-23T07:19:28.163Z,1021.75
2017-12-23T07:20:08.688Z,1021.68
2017-12-23T07:20:49.498Z,1021.68
2017-12-23T07:21:30.021Z,1021.68
2017-12-23T07:22:10.729Z,1021.73
2017-12-23T07:22:51.266Z,1021.71
2017-12-23T07:23:32.132Z,1021.7
2017-12-23T07:24:12.567Z,1021.75
2017-12-23T07:24:53.265Z,1021.74
2017-12-23T07:25:33.815Z,1021.77
2017-12-23T07:26:14.380Z,1021.79
2017-12-23T07:26:54.977Z,1021.83
2017-12-23T07:27:35.644Z,1021.88
2017-12-23T07:28:16.183Z,1021.87
2017-12-23T07:28:56.833Z,1021.82
2017-12-23T07:29:37.360Z,1021.88
2017-12-23T07:30:17.978Z,1021.89
2017-12-23T07:30:58.505Z,1021.87
2017-12-23T07:31:39.074Z,1021.91
2017-12-23T07:32:19.645Z,1021.88
2017-12-23T07:33:00.557Z,1021.91
2017-12-23T07:33:41.056Z,1021.88
2017-12-23T07:34:21.619Z,1021.88
2017-12-23T07:35:02.194Z,1021.9
2017-12-23T07:35:42.674Z,1021.82
2017-12-23T07:36:23.232Z,1021.81
2017-12-23T07:37:03.773Z,1021.86
2017-12-23T07:37:44.305Z,1021.85
2017-12-23T07:38:24.825Z,1021.9
2017-12-23T07:39:05.457Z,1021.83
2017-12-23T07:39:46.769Z,1021.91
2017-12-23T07:40:26.592Z,1021.87
2017-12-23T07:41:07.138Z,1021.95
2017-12-23T07:41:47.661Z,1021.91
2017-12-23T07:42:28.340Z,1021.92
2017-12-23T07:43:08.854Z,1021.98
2017-12-23T07:43:49.441Z,1021.88
2017-12-23T07:44:29.926Z,1021.95
2017-12-23T07:45:10.658Z,1021.94
2017-12-23T07:45:51.283Z,1021.93
2017-12-23T07:46:31.845Z,1022
2017-12-23T07:47:12.429Z,1022.01
2017-12-23T07:47:52.947Z,1022.05
2017-12-23T07:48:33.473Z,1022.05
2017-12-23T07:49:13.971Z,1022.05
2017-12-23T07:49:54.601Z,1022.05
2017-12-23T07:50:35.142Z,1022.06
2017-12-23T07:51:15.745Z,1022.02
2017-12-23T07:51:56.327Z,1022.06
2017-12-23T07:52:36.967Z,1022.05
2017-12-23T07:53:17.470Z,1022.07
2017-12-23T07:53:58.013Z,1022.09
2017-12-23T07:54:38.601Z,1022.13
2017-12-23T07:55:19.210Z,1022.21
2017-12-23T07:55:59.780Z,1022.18
2017-12-23T07:56:40.318Z,1022.17
2017-12-23T07:57:20.847Z,1022.2
2017-12-23T07:58:01.484Z,1022.2
2017-12-23T07:58:41.987Z,1022.3
2017-12-23T07:59:22.528Z,1022.25
2017-12-23T08:00:03.146Z,1022.3
2017-12-23T08:00:43.748Z,1022.26
2017-12-23T08:01:24.291Z,1022.3
2017-12-23T08:02:05.393Z,1022.34
2017-12-23T08:02:45.954Z,1022.35
2017-12-23T08:03:26.608Z,1022.33
2017-12-23T08:04:07.141Z,1022.34
2017-12-23T08:04:47.712Z,1022.37
2017-12-23T08:05:29.020Z,1022.4
2017-12-23T08:06:09.606Z,1022.32
2017-12-23T08:06:50.171Z,1022.35
2017-12-23T08:07:30.714Z,1022.31
2017-12-23T08:08:11.364Z,1022.36
2017-12-23T08:08:52.390Z,1022.35
2017-12-23T08:09:32.885Z,1022.34
2017-12-23T08:10:13.530Z,1022.36
2017-12-23T08:10:54.053Z,1022.37
2017-12-23T08:11:34.691Z,1022.37
2017-12-23T08:12:15.210Z,1022.36
2017-12-23T08:12:55.712Z,1022.38
2017-12-23T08:13:36.256Z,1022.34
2017-12-23T08:14:16.926Z,1022.34
2017-12-23T08:14:57.382Z,1022.35
2017-12-23T08:15:38.109Z,1022.35
2017-12-23T08:16:18.621Z,1022.42
2017-12-23T08:16:59.243Z,1022.4
2017-12-23T08:17:40.025Z,1022.42
2017-12-23T08:18:20.923Z,1022.46
2017-12-23T08:19:01.679Z,1022.45
2017-12-23T08:19:42.226Z,1022.51
2017-12-23T08:20:22.839Z,1022.54
2017-12-23T08:21:03.335Z,1022.58
2017-12-23T08:21:44.196Z,1022.54
2017-12-23T08:22:25.159Z,1022.58
2017-12-23T08:23:06.300Z,1022.59
2017-12-23T08:23:46.778Z,1022.6
2017-12-23T08:24:28.616Z,1022.64
2017-12-23T08:25:10.858Z,1022.62
2017-12-23T08:25:50.847Z,1022.6
2017-12-23T08:26:31.777Z,1022.67
2017-12-23T08:28:36.220Z,1022.6
2017-12-23T08:29:24.922Z,1022.62
2017-12-23T08:30:13.771Z,1022.58